sensor_id;sensor_type;location;lat;lon;timestamp;P1;durP1;ratioP1;P2;durP2;ratioP2
6053;SDS011;3055;50.886;14.814;2022-10-30T00:02:05;13.40;;;8.77;;
6053;SDS011;3055;50.886;14.814;2022-10-30T00:04:32;11.60;;;8.90;;
6053;SDS011;3055;50.886;14.814;2022-10-30T00:06:59;11.20;;;8.63;;
6053;SDS011;3055;50.886;14.814;2022-10-30T00:09:26;15.60;;;9.80;;
6053;SDS011;3055;50.886;14.814;2022-10-30T00:11:52;11.57;;;8.67;;
6053;SDS011;3055;50.886;14.814;2022-10-30T00:14:19;12.60;;;9.50;;
6053;SDS011;3055;50.886;14.814;2022-10-30T00:16:47;13.33;;;9.37;;
6053;SDS011;3055;50.886;14.814;2022-10-30T00:19:14;14.77;;;9.70;;
6053;SDS011;3055;50.886;14.814;2022-10-30T00:21:41;11.13;;;9.47;;
6053;SDS011;3055;50.886;14.814;2022-10-30T00:24:08;13.47;;;9.93;;
6053;SDS011;3055;50.886;14.814;2022-10-30T00:26:36;16.60;;;9.27;;
6053;SDS011;3055;50.886;14.814;2022-10-30T00:29:03;15.17;;;9.20;;
6053;SDS011;3055;50.886;14.814;2022-10-30T00:31:30;13.93;;;9.83;;
6053;SDS011;3055;50.886;14.814;2022-10-30T00:33:58;12.53;;;10.17;;
6053;SDS011;3055;50.886;14.814;2022-10-30T00:36:25;10.70;;;8.90;;
6053;SDS011;3055;50.886;14.814;2022-10-30T00:38:52;14.13;;;9.73;;
6053;SDS011;3055;50.886;14.814;2022-10-30T00:41:19;11.53;;;8.87;;
6053;SDS011;3055;50.886;14.814;2022-10-30T00:43:48;13.23;;;9.20;;
6053;SDS011;3055;50.886;14.814;2022-10-30T00:46:15;10.73;;;8.50;;
6053;SDS011;3055;50.886;14.814;2022-10-30T00:48:47;12.50;;;8.80;;
6053;SDS011;3055;50.886;14.814;2022-10-30T00:51:18;15.03;;;9.37;;
6053;SDS011;3055;50.886;14.814;2022-10-30T00:53:46;14.03;;;9.20;;
6053;SDS011;3055;50.886;14.814;2022-10-30T00:56:14;14.63;;;8.90;;
6053;SDS011;3055;50.886;14.814;2022-10-30T00:58:45;10.67;;;8.57;;
6053;SDS011;3055;50.886;14.814;2022-10-30T01:01:16;13.27;;;9.07;;
6053;SDS011;3055;50.886;14.814;2022-10-30T01:03:46;11.23;;;8.93;;
6053;SDS011;3055;50.886;14.814;2022-10-30T01:06:18;16.37;;;8.83;;
6053;SDS011;3055;50.886;14.814;2022-10-30T01:08:45;14.17;;;9.27;;
6053;SDS011;3055;50.886;14.814;2022-10-30T01:11:13;10.47;;;8.73;;
6053;SDS011;3055;50.886;14.814;2022-10-30T01:13:40;14.07;;;9.60;;
6053;SDS011;3055;50.886;14.814;2022-10-30T01:16:24;12.23;;;9.60;;
6053;SDS011;3055;50.886;14.814;2022-10-30T01:19:13;11.17;;;9.10;;
6053;SDS011;3055;50.886;14.814;2022-10-30T01:21:52;18.40;;;9.53;;
6053;SDS011;3055;50.886;14.814;2022-10-30T01:24:34;10.10;;;9.00;;
6053;SDS011;3055;50.886;14.814;2022-10-30T01:27:13;11.77;;;8.77;;
6053;SDS011;3055;50.886;14.814;2022-10-30T01:29:54;11.30;;;9.40;;
6053;SDS011;3055;50.886;14.814;2022-10-30T01:32:32;16.97;;;9.77;;
6053;SDS011;3055;50.886;14.814;2022-10-30T01:35:06;12.23;;;9.40;;
6053;SDS011;3055;50.886;14.814;2022-10-30T01:37:42;13.47;;;9.27;;
6053;SDS011;3055;50.886;14.814;2022-10-30T01:40:15;11.37;;;9.43;;
6053;SDS011;3055;50.886;14.814;2022-10-30T01:42:47;13.00;;;9.63;;
6053;SDS011;3055;50.886;14.814;2022-10-30T01:45:19;13.07;;;9.37;;
6053;SDS011;3055;50.886;14.814;2022-10-30T01:47:58;13.77;;;10.37;;
6053;SDS011;3055;50.886;14.814;2022-10-30T01:50:49;13.90;;;9.90;;
6053;SDS011;3055;50.886;14.814;2022-10-30T01:53:26;11.33;;;10.13;;
6053;SDS011;3055;50.886;14.814;2022-10-30T01:56:04;12.57;;;9.43;;
6053;SDS011;3055;50.886;14.814;2022-10-30T01:58:47;14.80;;;9.43;;
6053;SDS011;3055;50.886;14.814;2022-10-30T02:01:20;13.97;;;11.20;;
6053;SDS011;3055;50.886;14.814;2022-10-30T02:03:48;14.90;;;11.27;;
6053;SDS011;3055;50.886;14.814;2022-10-30T02:06:16;15.03;;;11.90;;
6053;SDS011;3055;50.886;14.814;2022-10-30T02:08:44;14.47;;;10.50;;
6053;SDS011;3055;50.886;14.814;2022-10-30T02:11:11;15.73;;;11.07;;
6053;SDS011;3055;50.886;14.814;2022-10-30T02:13:39;14.93;;;12.10;;
6053;SDS011;3055;50.886;14.814;2022-10-30T02:16:06;16.73;;;11.53;;
6053;SDS011;3055;50.886;14.814;2022-10-30T02:18:34;17.40;;;12.00;;
6053;SDS011;3055;50.886;14.814;2022-10-30T02:21:03;13.50;;;11.07;;
6053;SDS011;3055;50.886;14.814;2022-10-30T02:23:30;15.57;;;11.67;;
6053;SDS011;3055;50.886;14.814;2022-10-30T02:25:57;14.17;;;11.57;;
6053;SDS011;3055;50.886;14.814;2022-10-30T02:28:24;14.80;;;10.67;;
6053;SDS011;3055;50.886;14.814;2022-10-30T02:30:51;14.63;;;11.57;;
6053;SDS011;3055;50.886;14.814;2022-10-30T02:33:18;14.47;;;11.27;;
6053;SDS011;3055;50.886;14.814;2022-10-30T02:35:45;15.90;;;11.63;;
6053;SDS011;3055;50.886;14.814;2022-10-30T02:38:13;12.63;;;11.07;;
6053;SDS011;3055;50.886;14.814;2022-10-30T02:40:40;16.93;;;10.97;;
6053;SDS011;3055;50.886;14.814;2022-10-30T02:43:07;13.13;;;10.63;;
6053;SDS011;3055;50.886;14.814;2022-10-30T02:45:34;16.13;;;11.40;;
6053;SDS011;3055;50.886;14.814;2022-10-30T02:48:01;17.53;;;12.37;;
6053;SDS011;3055;50.886;14.814;2022-10-30T02:50:28;15.60;;;10.97;;
6053;SDS011;3055;50.886;14.814;2022-10-30T02:52:54;14.90;;;11.33;;
6053;SDS011;3055;50.886;14.814;2022-10-30T02:55:25;18.03;;;12.27;;
6053;SDS011;3055;50.886;14.814;2022-10-30T02:57:52;15.87;;;11.50;;
6053;SDS011;3055;50.886;14.814;2022-10-30T03:00:19;15.43;;;11.43;;
6053;SDS011;3055;50.886;14.814;2022-10-30T03:02:46;14.17;;;10.73;;
6053;SDS011;3055;50.886;14.814;2022-10-30T03:05:13;14.70;;;11.20;;
6053;SDS011;3055;50.886;14.814;2022-10-30T03:07:40;14.00;;;11.47;;
6053;SDS011;3055;50.886;14.814;2022-10-30T03:10:07;15.43;;;11.07;;
6053;SDS011;3055;50.886;14.814;2022-10-30T03:12:36;15.37;;;10.83;;
6053;SDS011;3055;50.886;14.814;2022-10-30T03:15:03;16.53;;;11.57;;
6053;SDS011;3055;50.886;14.814;2022-10-30T03:17:33;15.87;;;11.47;;
6053;SDS011;3055;50.886;14.814;2022-10-30T03:20:00;13.40;;;11.13;;
6053;SDS011;3055;50.886;14.814;2022-10-30T03:22:27;13.40;;;10.50;;
6053;SDS011;3055;50.886;14.814;2022-10-30T03:24:53;16.03;;;11.53;;
6053;SDS011;3055;50.886;14.814;2022-10-30T03:27:20;16.10;;;11.70;;
6053;SDS011;3055;50.886;14.814;2022-10-30T03:29:49;18.50;;;11.67;;
6053;SDS011;3055;50.886;14.814;2022-10-30T03:32:15;13.47;;;10.90;;
6053;SDS011;3055;50.886;14.814;2022-10-30T03:34:42;16.93;;;12.07;;
6053;SDS011;3055;50.886;14.814;2022-10-30T03:37:09;15.77;;;11.83;;
6053;SDS011;3055;50.886;14.814;2022-10-30T03:39:36;13.87;;;10.73;;
6053;SDS011;3055;50.886;14.814;2022-10-30T03:42:03;12.50;;;11.20;;
6053;SDS011;3055;50.886;14.814;2022-10-30T03:44:30;16.20;;;11.03;;
6053;SDS011;3055;50.886;14.814;2022-10-30T03:46:58;14.53;;;11.23;;
6053;SDS011;3055;50.886;14.814;2022-10-30T03:49:25;15.57;;;12.17;;
6053;SDS011;3055;50.886;14.814;2022-10-30T03:51:52;17.60;;;11.73;;
6053;SDS011;3055;50.886;14.814;2022-10-30T03:54:19;14.37;;;12.30;;
6053;SDS011;3055;50.886;14.814;2022-10-30T03:56:46;17.57;;;12.63;;
6053;SDS011;3055;50.886;14.814;2022-10-30T03:59:12;16.60;;;12.73;;
6053;SDS011;3055;50.886;14.814;2022-10-30T04:01:39;17.33;;;13.17;;
6053;SDS011;3055;50.886;14.814;2022-10-30T04:04:07;15.43;;;12.23;;
6053;SDS011;3055;50.886;14.814;2022-10-30T04:06:34;18.33;;;12.80;;
6053;SDS011;3055;50.886;14.814;2022-10-30T04:09:01;14.60;;;13.10;;
6053;SDS011;3055;50.886;14.814;2022-10-30T04:11:28;19.53;;;13.27;;
6053;SDS011;3055;50.886;14.814;2022-10-30T04:13:55;15.13;;;13.33;;
6053;SDS011;3055;50.886;14.814;2022-10-30T04:16:22;16.80;;;14.00;;
6053;SDS011;3055;50.886;14.814;2022-10-30T04:18:49;14.80;;;12.27;;
6053;SDS011;3055;50.886;14.814;2022-10-30T04:21:17;18.67;;;13.13;;
6053;SDS011;3055;50.886;14.814;2022-10-30T04:23:44;15.47;;;12.57;;
6053;SDS011;3055;50.886;14.814;2022-10-30T04:26:11;16.27;;;12.80;;
6053;SDS011;3055;50.886;14.814;2022-10-30T04:28:39;14.63;;;13.13;;
6053;SDS011;3055;50.886;14.814;2022-10-30T04:31:06;17.53;;;13.80;;
6053;SDS011;3055;50.886;14.814;2022-10-30T04:33:32;17.07;;;13.43;;
6053;SDS011;3055;50.886;14.814;2022-10-30T04:35:59;16.90;;;13.10;;
6053;SDS011;3055;50.886;14.814;2022-10-30T04:38:27;18.73;;;13.43;;
6053;SDS011;3055;50.886;14.814;2022-10-30T04:40:54;14.70;;;13.17;;
6053;SDS011;3055;50.886;14.814;2022-10-30T04:43:21;18.03;;;14.20;;
6053;SDS011;3055;50.886;14.814;2022-10-30T04:45:48;17.63;;;13.63;;
6053;SDS011;3055;50.886;14.814;2022-10-30T04:48:15;15.67;;;13.60;;
6053;SDS011;3055;50.886;14.814;2022-10-30T04:50:43;20.20;;;13.40;;
6053;SDS011;3055;50.886;14.814;2022-10-30T04:53:11;17.67;;;13.13;;
6053;SDS011;3055;50.886;14.814;2022-10-30T04:55:40;19.70;;;15.17;;
6053;SDS011;3055;50.886;14.814;2022-10-30T04:58:08;19.00;;;14.27;;
6053;SDS011;3055;50.886;14.814;2022-10-30T05:00:36;16.63;;;14.10;;
6053;SDS011;3055;50.886;14.814;2022-10-30T05:03:03;17.83;;;13.53;;
6053;SDS011;3055;50.886;14.814;2022-10-30T05:05:30;15.33;;;13.13;;
6053;SDS011;3055;50.886;14.814;2022-10-30T05:07:57;19.13;;;13.80;;
6053;SDS011;3055;50.886;14.814;2022-10-30T05:10:24;14.73;;;12.97;;
6053;SDS011;3055;50.886;14.814;2022-10-30T05:12:52;20.10;;;13.17;;
6053;SDS011;3055;50.886;14.814;2022-10-30T05:15:19;16.87;;;13.63;;
6053;SDS011;3055;50.886;14.814;2022-10-30T05:17:49;17.73;;;13.13;;
6053;SDS011;3055;50.886;14.814;2022-10-30T05:20:17;18.37;;;13.57;;
6053;SDS011;3055;50.886;14.814;2022-10-30T05:22:44;15.40;;;13.60;;
6053;SDS011;3055;50.886;14.814;2022-10-30T05:25:12;17.80;;;14.50;;
6053;SDS011;3055;50.886;14.814;2022-10-30T05:27:40;14.50;;;12.83;;
6053;SDS011;3055;50.886;14.814;2022-10-30T05:30:08;15.67;;;13.20;;
6053;SDS011;3055;50.886;14.814;2022-10-30T05:32:35;17.87;;;13.93;;
6053;SDS011;3055;50.886;14.814;2022-10-30T05:35:03;16.10;;;13.03;;
6053;SDS011;3055;50.886;14.814;2022-10-30T05:37:30;17.20;;;13.50;;
6053;SDS011;3055;50.886;14.814;2022-10-30T05:39:57;19.47;;;14.03;;
6053;SDS011;3055;50.886;14.814;2022-10-30T05:42:24;15.30;;;13.80;;
6053;SDS011;3055;50.886;14.814;2022-10-30T05:44:50;18.00;;;13.63;;
6053;SDS011;3055;50.886;14.814;2022-10-30T05:47:19;14.90;;;13.40;;
6053;SDS011;3055;50.886;14.814;2022-10-30T05:49:45;15.27;;;13.37;;
6053;SDS011;3055;50.886;14.814;2022-10-30T05:52:12;22.70;;;14.80;;
6053;SDS011;3055;50.886;14.814;2022-10-30T05:54:39;16.63;;;14.70;;
6053;SDS011;3055;50.886;14.814;2022-10-30T05:57:06;18.37;;;14.27;;
6053;SDS011;3055;50.886;14.814;2022-10-30T05:59:33;16.77;;;13.27;;
6053;SDS011;3055;50.886;14.814;2022-10-30T06:02:00;19.60;;;14.87;;
6053;SDS011;3055;50.886;14.814;2022-10-30T06:04:28;20.80;;;15.83;;
6053;SDS011;3055;50.886;14.814;2022-10-30T06:06:55;16.97;;;15.17;;
6053;SDS011;3055;50.886;14.814;2022-10-30T06:09:22;18.80;;;15.73;;
6053;SDS011;3055;50.886;14.814;2022-10-30T06:11:49;19.37;;;15.10;;
6053;SDS011;3055;50.886;14.814;2022-10-30T06:14:16;17.87;;;15.97;;
6053;SDS011;3055;50.886;14.814;2022-10-30T06:16:42;20.57;;;16.77;;
6053;SDS011;3055;50.886;14.814;2022-10-30T06:19:09;17.27;;;15.47;;
6053;SDS011;3055;50.886;14.814;2022-10-30T06:21:37;18.07;;;15.60;;
6053;SDS011;3055;50.886;14.814;2022-10-30T06:24:11;18.07;;;14.60;;
6053;SDS011;3055;50.886;14.814;2022-10-30T06:26:38;20.20;;;15.10;;
6053;SDS011;3055;50.886;14.814;2022-10-30T06:29:05;20.50;;;15.63;;
6053;SDS011;3055;50.886;14.814;2022-10-30T06:31:32;19.97;;;16.97;;
6053;SDS011;3055;50.886;14.814;2022-10-30T06:33:59;20.33;;;16.13;;
6053;SDS011;3055;50.886;14.814;2022-10-30T06:36:25;23.43;;;17.07;;
6053;SDS011;3055;50.886;14.814;2022-10-30T06:38:54;20.53;;;16.50;;
6053;SDS011;3055;50.886;14.814;2022-10-30T06:41:21;21.00;;;16.07;;
6053;SDS011;3055;50.886;14.814;2022-10-30T06:43:48;18.30;;;15.20;;
6053;SDS011;3055;50.886;14.814;2022-10-30T06:46:14;20.77;;;16.00;;
6053;SDS011;3055;50.886;14.814;2022-10-30T06:48:41;17.27;;;15.57;;
6053;SDS011;3055;50.886;14.814;2022-10-30T06:51:08;18.40;;;15.93;;
6053;SDS011;3055;50.886;14.814;2022-10-30T06:53:36;16.87;;;15.07;;
6053;SDS011;3055;50.886;14.814;2022-10-30T06:56:04;18.27;;;14.77;;
6053;SDS011;3055;50.886;14.814;2022-10-30T06:58:31;16.13;;;14.57;;
6053;SDS011;3055;50.886;14.814;2022-10-30T07:01:03;16.50;;;14.13;;
6053;SDS011;3055;50.886;14.814;2022-10-30T07:03:30;16.73;;;14.23;;
6053;SDS011;3055;50.886;14.814;2022-10-30T07:05:57;15.97;;;14.23;;
6053;SDS011;3055;50.886;14.814;2022-10-30T07:08:24;17.33;;;14.83;;
6053;SDS011;3055;50.886;14.814;2022-10-30T07:10:51;16.53;;;14.30;;
6053;SDS011;3055;50.886;14.814;2022-10-30T07:13:19;16.93;;;13.60;;
6053;SDS011;3055;50.886;14.814;2022-10-30T07:15:46;18.60;;;13.90;;
6053;SDS011;3055;50.886;14.814;2022-10-30T07:18:13;17.50;;;15.00;;
6053;SDS011;3055;50.886;14.814;2022-10-30T07:20:41;15.27;;;13.07;;
6053;SDS011;3055;50.886;14.814;2022-10-30T07:23:08;16.50;;;13.23;;
6053;SDS011;3055;50.886;14.814;2022-10-30T07:25:35;16.87;;;13.90;;
6053;SDS011;3055;50.886;14.814;2022-10-30T07:28:02;17.97;;;14.03;;
6053;SDS011;3055;50.886;14.814;2022-10-30T07:30:30;15.43;;;13.47;;
6053;SDS011;3055;50.886;14.814;2022-10-30T07:32:57;16.13;;;13.20;;
6053;SDS011;3055;50.886;14.814;2022-10-30T07:35:26;18.07;;;14.10;;
6053;SDS011;3055;50.886;14.814;2022-10-30T07:37:53;15.00;;;13.10;;
6053;SDS011;3055;50.886;14.814;2022-10-30T07:40:20;23.33;;;12.57;;
6053;SDS011;3055;50.886;14.814;2022-10-30T07:42:47;16.03;;;14.10;;
6053;SDS011;3055;50.886;14.814;2022-10-30T07:45:14;15.53;;;12.90;;
6053;SDS011;3055;50.886;14.814;2022-10-30T07:47:43;20.57;;;13.13;;
6053;SDS011;3055;50.886;14.814;2022-10-30T07:50:10;15.70;;;12.90;;
6053;SDS011;3055;50.886;14.814;2022-10-30T07:52:37;16.00;;;12.73;;
6053;SDS011;3055;50.886;14.814;2022-10-30T07:55:04;16.20;;;11.73;;
6053;SDS011;3055;50.886;14.814;2022-10-30T07:57:34;15.23;;;12.73;;
6053;SDS011;3055;50.886;14.814;2022-10-30T08:00:02;20.00;;;13.27;;
6053;SDS011;3055;50.886;14.814;2022-10-30T08:02:29;19.30;;;14.63;;
6053;SDS011;3055;50.886;14.814;2022-10-30T08:04:58;15.83;;;12.97;;
6053;SDS011;3055;50.886;14.814;2022-10-30T08:07:27;19.10;;;14.40;;
6053;SDS011;3055;50.886;14.814;2022-10-30T08:09:55;20.33;;;17.50;;
6053;SDS011;3055;50.886;14.814;2022-10-30T08:12:22;15.30;;;13.67;;
6053;SDS011;3055;50.886;14.814;2022-10-30T08:14:48;18.13;;;14.43;;
6053;SDS011;3055;50.886;14.814;2022-10-30T08:17:16;18.50;;;13.40;;
6053;SDS011;3055;50.886;14.814;2022-10-30T08:19:43;17.13;;;12.97;;
6053;SDS011;3055;50.886;14.814;2022-10-30T08:22:11;15.97;;;12.70;;
6053;SDS011;3055;50.886;14.814;2022-10-30T08:24:39;16.37;;;13.97;;
6053;SDS011;3055;50.886;14.814;2022-10-30T08:27:05;18.40;;;13.87;;
6053;SDS011;3055;50.886;14.814;2022-10-30T08:29:34;19.63;;;13.83;;
6053;SDS011;3055;50.886;14.814;2022-10-30T08:32:01;19.93;;;13.00;;
6053;SDS011;3055;50.886;14.814;2022-10-30T08:34:29;16.97;;;13.77;;
6053;SDS011;3055;50.886;14.814;2022-10-30T08:36:58;16.27;;;14.53;;
6053;SDS011;3055;50.886;14.814;2022-10-30T08:39:26;15.20;;;13.23;;
6053;SDS011;3055;50.886;14.814;2022-10-30T08:41:55;17.73;;;13.93;;
6053;SDS011;3055;50.886;14.814;2022-10-30T08:44:22;19.07;;;14.57;;
6053;SDS011;3055;50.886;14.814;2022-10-30T08:46:49;17.47;;;13.63;;
6053;SDS011;3055;50.886;14.814;2022-10-30T08:49:16;17.23;;;14.23;;
6053;SDS011;3055;50.886;14.814;2022-10-30T08:51:43;16.10;;;13.90;;
6053;SDS011;3055;50.886;14.814;2022-10-30T08:54:10;21.17;;;13.90;;
6053;SDS011;3055;50.886;14.814;2022-10-30T08:56:38;21.43;;;13.73;;
6053;SDS011;3055;50.886;14.814;2022-10-30T08:59:05;23.17;;;14.13;;
6053;SDS011;3055;50.886;14.814;2022-10-30T09:01:32;16.93;;;13.10;;
6053;SDS011;3055;50.886;14.814;2022-10-30T09:04:00;16.83;;;13.03;;
6053;SDS011;3055;50.886;14.814;2022-10-30T09:06:28;18.50;;;12.80;;
6053;SDS011;3055;50.886;14.814;2022-10-30T09:08:55;19.27;;;12.83;;
6053;SDS011;3055;50.886;14.814;2022-10-30T09:11:22;16.13;;;14.20;;
6053;SDS011;3055;50.886;14.814;2022-10-30T09:13:50;17.93;;;12.67;;
6053;SDS011;3055;50.886;14.814;2022-10-30T09:16:17;21.47;;;12.90;;
6053;SDS011;3055;50.886;14.814;2022-10-30T09:18:44;18.60;;;12.63;;
6053;SDS011;3055;50.886;14.814;2022-10-30T09:21:11;18.40;;;11.03;;
6053;SDS011;3055;50.886;14.814;2022-10-30T09:23:38;16.20;;;12.77;;
6053;SDS011;3055;50.886;14.814;2022-10-30T09:26:04;17.27;;;11.30;;
6053;SDS011;3055;50.886;14.814;2022-10-30T09:28:31;17.27;;;11.57;;
6053;SDS011;3055;50.886;14.814;2022-10-30T09:31:01;12.23;;;10.93;;
6053;SDS011;3055;50.886;14.814;2022-10-30T09:33:31;15.97;;;10.97;;
6053;SDS011;3055;50.886;14.814;2022-10-30T09:36:00;15.10;;;11.23;;
6053;SDS011;3055;50.886;14.814;2022-10-30T09:38:30;13.47;;;10.73;;
6053;SDS011;3055;50.886;14.814;2022-10-30T09:41:02;19.07;;;12.40;;
6053;SDS011;3055;50.886;14.814;2022-10-30T09:43:49;16.60;;;11.03;;
6053;SDS011;3055;50.886;14.814;2022-10-30T09:46:30;14.17;;;10.80;;
6053;SDS011;3055;50.886;14.814;2022-10-30T09:49:04;17.60;;;12.00;;
6053;SDS011;3055;50.886;14.814;2022-10-30T09:51:53;12.93;;;10.47;;
6053;SDS011;3055;50.886;14.814;2022-10-30T09:54:35;13.70;;;10.73;;
6053;SDS011;3055;50.886;14.814;2022-10-30T09:57:17;15.57;;;10.50;;
6053;SDS011;3055;50.886;14.814;2022-10-30T09:59:59;17.30;;;10.20;;
6053;SDS011;3055;50.886;14.814;2022-10-30T10:02:33;15.47;;;10.17;;
6053;SDS011;3055;50.886;14.814;2022-10-30T10:05:04;15.93;;;9.60;;
6053;SDS011;3055;50.886;14.814;2022-10-30T10:07:40;12.33;;;9.27;;
6053;SDS011;3055;50.886;14.814;2022-10-30T10:10:12;13.70;;;9.83;;
6053;SDS011;3055;50.886;14.814;2022-10-30T10:12:45;13.67;;;9.33;;
6053;SDS011;3055;50.886;14.814;2022-10-30T10:15:16;16.37;;;10.07;;
6053;SDS011;3055;50.886;14.814;2022-10-30T10:17:50;14.90;;;8.90;;
6053;SDS011;3055;50.886;14.814;2022-10-30T10:20:22;12.90;;;9.40;;
6053;SDS011;3055;50.886;14.814;2022-10-30T10:22:55;10.87;;;8.97;;
6053;SDS011;3055;50.886;14.814;2022-10-30T10:25:24;11.23;;;8.43;;
6053;SDS011;3055;50.886;14.814;2022-10-30T10:27:55;14.23;;;8.40;;
6053;SDS011;3055;50.886;14.814;2022-10-30T10:30:33;12.97;;;8.77;;
6053;SDS011;3055;50.886;14.814;2022-10-30T10:33:32;13.83;;;8.40;;
6053;SDS011;3055;50.886;14.814;2022-10-30T10:36:09;13.03;;;8.77;;
6053;SDS011;3055;50.886;14.814;2022-10-30T10:38:51;12.80;;;8.27;;
6053;SDS011;3055;50.886;14.814;2022-10-30T10:41:38;14.93;;;8.90;;
6053;SDS011;3055;50.886;14.814;2022-10-30T10:44:17;12.53;;;8.67;;
6053;SDS011;3055;50.886;14.814;2022-10-30T10:46:58;17.20;;;9.90;;
6053;SDS011;3055;50.886;14.814;2022-10-30T10:49:44;13.10;;;8.03;;
6053;SDS011;3055;50.886;14.814;2022-10-30T10:52:22;14.23;;;7.90;;
6053;SDS011;3055;50.886;14.814;2022-10-30T10:54:54;13.03;;;8.70;;
6053;SDS011;3055;50.886;14.814;2022-10-30T10:57:24;12.00;;;7.57;;
6053;SDS011;3055;50.886;14.814;2022-10-30T10:59:55;13.90;;;8.20;;
6053;SDS011;3055;50.886;14.814;2022-10-30T11:02:29;13.77;;;8.03;;
6053;SDS011;3055;50.886;14.814;2022-10-30T11:05:03;10.20;;;8.23;;
6053;SDS011;3055;50.886;14.814;2022-10-30T11:07:34;16.53;;;8.40;;
6053;SDS011;3055;50.886;14.814;2022-10-30T11:10:10;12.83;;;7.50;;
6053;SDS011;3055;50.886;14.814;2022-10-30T11:12:38;11.20;;;7.33;;
6053;SDS011;3055;50.886;14.814;2022-10-30T11:15:08;12.30;;;7.53;;
6053;SDS011;3055;50.886;14.814;2022-10-30T11:17:58;10.83;;;7.50;;
6053;SDS011;3055;50.886;14.814;2022-10-30T11:20:30;9.40;;;6.93;;
6053;SDS011;3055;50.886;14.814;2022-10-30T11:23:03;11.43;;;6.63;;
6053;SDS011;3055;50.886;14.814;2022-10-30T11:25:50;9.60;;;6.60;;
6053;SDS011;3055;50.886;14.814;2022-10-30T11:28:23;9.83;;;6.83;;
6053;SDS011;3055;50.886;14.814;2022-10-30T11:31:17;13.50;;;7.23;;
6053;SDS011;3055;50.886;14.814;2022-10-30T11:33:45;14.10;;;7.27;;
6053;SDS011;3055;50.886;14.814;2022-10-30T11:36:14;11.37;;;7.10;;
6053;SDS011;3055;50.886;14.814;2022-10-30T11:38:42;12.50;;;6.70;;
6053;SDS011;3055;50.886;14.814;2022-10-30T11:41:09;10.93;;;7.00;;
6053;SDS011;3055;50.886;14.814;2022-10-30T11:43:38;15.53;;;7.60;;
6053;SDS011;3055;50.886;14.814;2022-10-30T11:46:06;9.60;;;6.77;;
6053;SDS011;3055;50.886;14.814;2022-10-30T11:48:36;11.33;;;6.83;;
6053;SDS011;3055;50.886;14.814;2022-10-30T11:51:04;15.10;;;7.13;;
6053;SDS011;3055;50.886;14.814;2022-10-30T11:53:33;11.80;;;7.17;;
6053;SDS011;3055;50.886;14.814;2022-10-30T11:56:09;11.90;;;6.93;;
6053;SDS011;3055;50.886;14.814;2022-10-30T11:58:41;9.93;;;7.17;;
6053;SDS011;3055;50.886;14.814;2022-10-30T12:01:13;12.93;;;6.90;;
6053;SDS011;3055;50.886;14.814;2022-10-30T12:03:48;13.70;;;6.63;;
6053;SDS011;3055;50.886;14.814;2022-10-30T12:06:16;17.43;;;6.80;;
6053;SDS011;3055;50.886;14.814;2022-10-30T12:08:59;14.33;;;6.57;;
6053;SDS011;3055;50.886;14.814;2022-10-30T12:11:29;12.30;;;7.13;;
6053;SDS011;3055;50.886;14.814;2022-10-30T12:13:57;12.27;;;7.03;;
6053;SDS011;3055;50.886;14.814;2022-10-30T12:16:25;10.20;;;7.17;;
6053;SDS011;3055;50.886;14.814;2022-10-30T12:18:55;8.80;;;6.50;;
6053;SDS011;3055;50.886;14.814;2022-10-30T12:21:25;10.50;;;6.80;;
6053;SDS011;3055;50.886;14.814;2022-10-30T12:23:54;10.63;;;5.80;;
6053;SDS011;3055;50.886;14.814;2022-10-30T12:26:25;11.10;;;6.37;;
6053;SDS011;3055;50.886;14.814;2022-10-30T12:28:56;9.90;;;6.03;;
6053;SDS011;3055;50.886;14.814;2022-10-30T12:31:27;9.03;;;5.93;;
6053;SDS011;3055;50.886;14.814;2022-10-30T12:34:02;11.57;;;6.27;;
6053;SDS011;3055;50.886;14.814;2022-10-30T12:36:49;12.87;;;6.17;;
6053;SDS011;3055;50.886;14.814;2022-10-30T12:39:23;13.00;;;6.10;;
6053;SDS011;3055;50.886;14.814;2022-10-30T12:41:58;8.07;;;6.10;;
6053;SDS011;3055;50.886;14.814;2022-10-30T12:44:28;9.93;;;5.93;;
6053;SDS011;3055;50.886;14.814;2022-10-30T12:47:02;12.93;;;7.10;;
6053;SDS011;3055;50.886;14.814;2022-10-30T12:49:35;9.90;;;6.67;;
6053;SDS011;3055;50.886;14.814;2022-10-30T12:52:06;12.27;;;6.33;;
6053;SDS011;3055;50.886;14.814;2022-10-30T12:54:40;11.67;;;6.60;;
6053;SDS011;3055;50.886;14.814;2022-10-30T12:57:14;10.47;;;6.93;;
6053;SDS011;3055;50.886;14.814;2022-10-30T12:59:45;10.90;;;7.37;;
6053;SDS011;3055;50.886;14.814;2022-10-30T13:02:25;8.30;;;6.27;;
6053;SDS011;3055;50.886;14.814;2022-10-30T13:04:58;9.07;;;6.50;;
6053;SDS011;3055;50.886;14.814;2022-10-30T13:07:30;8.67;;;6.37;;
6053;SDS011;3055;50.886;14.814;2022-10-30T13:10:10;13.07;;;7.80;;
6053;SDS011;3055;50.886;14.814;2022-10-30T13:12:46;9.13;;;6.70;;
6053;SDS011;3055;50.886;14.814;2022-10-30T13:15:20;11.40;;;7.10;;
6053;SDS011;3055;50.886;14.814;2022-10-30T13:17:51;12.60;;;6.57;;
6053;SDS011;3055;50.886;14.814;2022-10-30T13:20:18;11.40;;;6.33;;
6053;SDS011;3055;50.886;14.814;2022-10-30T13:22:48;8.67;;;6.57;;
6053;SDS011;3055;50.886;14.814;2022-10-30T13:25:21;12.83;;;6.77;;
6053;SDS011;3055;50.886;14.814;2022-10-30T13:27:54;12.87;;;7.10;;
6053;SDS011;3055;50.886;14.814;2022-10-30T13:30:27;13.13;;;6.57;;
6053;SDS011;3055;50.886;14.814;2022-10-30T13:33:02;13.10;;;6.97;;
6053;SDS011;3055;50.886;14.814;2022-10-30T13:35:38;11.73;;;6.50;;
6053;SDS011;3055;50.886;14.814;2022-10-30T13:41:05;13.93;;;7.40;;
6053;SDS011;3055;50.886;14.814;2022-10-30T13:43:43;8.20;;;5.60;;
6053;SDS011;3055;50.886;14.814;2022-10-30T13:46:21;9.93;;;6.37;;
6053;SDS011;3055;50.886;14.814;2022-10-30T13:49:02;9.53;;;6.17;;
6053;SDS011;3055;50.886;14.814;2022-10-30T13:51:43;11.43;;;6.37;;
6053;SDS011;3055;50.886;14.814;2022-10-30T13:54:16;8.70;;;6.40;;
6053;SDS011;3055;50.886;14.814;2022-10-30T13:56:46;13.83;;;6.73;;
6053;SDS011;3055;50.886;14.814;2022-10-30T14:02:15;14.13;;;6.93;;
6053;SDS011;3055;50.886;14.814;2022-10-30T14:04:51;10.57;;;6.17;;
6053;SDS011;3055;50.886;14.814;2022-10-30T14:07:26;7.63;;;6.07;;
6053;SDS011;3055;50.886;14.814;2022-10-30T14:10:01;11.50;;;6.40;;
6053;SDS011;3055;50.886;14.814;2022-10-30T14:12:45;14.53;;;6.10;;
6053;SDS011;3055;50.886;14.814;2022-10-30T14:15:25;12.40;;;6.50;;
6053;SDS011;3055;50.886;14.814;2022-10-30T14:20:48;12.73;;;6.40;;
6053;SDS011;3055;50.886;14.814;2022-10-30T14:23:18;11.90;;;6.50;;
6053;SDS011;3055;50.886;14.814;2022-10-30T14:28:40;9.33;;;7.23;;
6053;SDS011;3055;50.886;14.814;2022-10-30T14:31:10;14.20;;;6.80;;
6053;SDS011;3055;50.886;14.814;2022-10-30T14:33:41;14.37;;;7.00;;
6053;SDS011;3055;50.886;14.814;2022-10-30T14:36:17;11.73;;;7.67;;
6053;SDS011;3055;50.886;14.814;2022-10-30T14:38:57;13.10;;;6.57;;
6053;SDS011;3055;50.886;14.814;2022-10-30T14:41:36;10.33;;;6.93;;
6053;SDS011;3055;50.886;14.814;2022-10-30T14:50:15;10.83;;;7.30;;
6053;SDS011;3055;50.886;14.814;2022-10-30T14:52:50;11.00;;;7.03;;
6053;SDS011;3055;50.886;14.814;2022-10-30T14:55:28;11.77;;;8.13;;
6053;SDS011;3055;50.886;14.814;2022-10-30T14:58:14;12.53;;;7.07;;
6053;SDS011;3055;50.886;14.814;2022-10-30T15:00:44;12.23;;;8.13;;
6053;SDS011;3055;50.886;14.814;2022-10-30T15:03:17;10.37;;;7.27;;
6053;SDS011;3055;50.886;14.814;2022-10-30T15:06:02;10.50;;;7.93;;
6053;SDS011;3055;50.886;14.814;2022-10-30T15:08:45;10.37;;;6.83;;
6053;SDS011;3055;50.886;14.814;2022-10-30T15:11:33;10.93;;;7.97;;
6053;SDS011;3055;50.886;14.814;2022-10-30T15:14:11;12.47;;;8.33;;
6053;SDS011;3055;50.886;14.814;2022-10-30T15:16:44;8.80;;;7.37;;
6053;SDS011;3055;50.886;14.814;2022-10-30T15:19:15;13.43;;;7.90;;